Sherman, Texas
Current Conditions -  °F | °C
As of 9:35 PM on Friday 24 Oct 2014 (Local Time) from KGYI Reporting Station
Clear Clear  
Wind Chill: 72°   Ceiling: Unl
Heat Index: 72°   Visibility: 10mi
Dew Point: 63°   Wind: 10mph
Humidity: 73%   Direction: 150°SSE
Pressure: 30.09"   Gusts: NA
Location:  33.64°N, 96.61°W
Report Text: KGYI 250235Z AUTO 15009KT 10SM CLR 22/17 A3009 RMK AO2 T02210170
Loading
Personal Weather Stations






























Interactive Weather Map New forecast layout! Learn more

10-Day Weather Forecast

Advertisements
Track Severe Weather on mobile